Nearby METAR Reports

 

ENCN - Kristiansand/Kje, Norway
Distance from station: Pn 17km
Aktualizacja: 21/10/2019 21:20
Przeważnie pochmurno
Przeważnie pochmurno
 Wiatr z calm
Wiatr: Cisza
Temperatura: 7°C
Punkt Rosy: 7°C
Wilgotność: 100%
Ciśnienie: 1018 hPa
Clouds: Przeważnie pochmurno
Visibility: 10 km
Cloud details: Few Clouds 610 m
Przeważnie pochmurno 1067 m
2019/10/21 19:20 ENCN 211920Z 00000KT 9999 FEW020 BKN035 07/07 Q1018
EKSN - Sindal Airport, Denmark
Distance from station: WsPdWs 145km
Aktualizacja: 21/10/2019 15:50
NOT Current
Przeważnie pochmurno
Przeważnie pochmurno
 Wiatr z varies
Wiatr: varies 6 km/h
Temperatura: 8°C
Punkt Rosy: 6°C
Wilgotność: 87%
Ciśnienie: 1020 hPa
Clouds: Przeważnie pochmurno
Visibility: 10 km
Cloud details: Przeważnie pochmurno 427 m
2019/10/21 13:50 EKSN 211350Z VRB03KT 9999 BKN014 08/06 Q1020
 
EKYT - Alborg, Denmark
Distance from station: PdWs 153km
Aktualizacja: 21/10/2019 21:20
Przeważnie pochmurno
Przeważnie pochmurno
 Wiatr z PdWs
Wiatr: PdWs 4 km/h
Temperatura: 8°C
Punkt Rosy: 7°C
Wilgotność: 93%
Ciśnienie: 1019 hPa
Clouds: Przeważnie pochmurno
Visibility: 10 km
Cloud details: Przeważnie pochmurno 396 m
Przeważnie pochmurno 1829 m
2019/10/21 19:20 EKYT 211920Z AUTO 13002KT 9999 BKN013/// BKN060/// 08/07 Q1019
ENSN - Skien/Geiterygge, Norway
Distance from station: PnWs 153km
Aktualizacja: 09/11/2015 09:50
NOT Current
Bezchmurnie
Bezchmurnie
 Wiatr z PdPdZd
Wiatr: PdPdZd 19 km/h, Poryw: 41 km/h
Temperatura: 7°C
Wind Chill: 4°C
Punkt Rosy: 3°C
Wilgotność: 76%
Ciśnienie: 1000 hPa
Podsumowanie: Bezchmurnie
Visibility: greater than 10 km
2015/11/09 08:50 ENSN 090850Z 20010G22KT 150V240 CAVOK 07/03 Q1000
 
ENZV - Stavanger/Sola(A, Norway
Distance from station: PnZd 166km
Aktualizacja: 21/10/2019 21:50
Przeważnie pochmurno
Przeważnie pochmurno
 Wiatr z Pd
Wiatr: Pd 11 km/h
Temperatura: 8°C
Wind Chill: 6°C
Punkt Rosy: 7°C
Wilgotność: 93%
Ciśnienie: 1018 hPa
Clouds: Przeważnie pochmurno
Visibility: 10 km
Cloud details: Few Clouds 610 m
Przeważnie pochmurno 853 m
2019/10/21 19:50 ENZV 211950Z 18006KT 9999 FEW020 BKN028 08/07 Q1018
ENNO - Notodden, Norway
Distance from station: PnPnZd 182km
Aktualizacja: 21/10/2019 18:50
NOT Current
Przeważnie pochmurno
Przeważnie pochmurno
 Wiatr z ZdPnZd
Wiatr: ZdPnZd 9 km/h
Temperatura: 5°C
Wind Chill: 3°C
Punkt Rosy: 3°C
Wilgotność: 87%
Ciśnienie: 1018 hPa
Clouds: Przeważnie pochmurno
Visibility: 10 km
Cloud details: Przeważnie pochmurno 396 m
2019/10/21 16:50 ENNO 211650Z 30005KT 9999 BKN013 05/03 Q1018
 
ENTO - Torp (civ/Nor-Af, Norway
Distance from station: PnWs 183km
Aktualizacja: 21/10/2019 21:20
Pochmurno
Pochmurno
 Wiatr z PdPdZd
Wiatr: PdPdZd 13 km/h
Temperatura: 7°C
Wind Chill: 5°C
Punkt Rosy: 5°C
Wilgotność: 87%
Ciśnienie: 1017 hPa
Clouds: Pochmurno
Visibility: 10 km
Cloud details: Częściowe zachmurzenie 640 m
Pochmurno 823 m
2019/10/21 19:20 ENTO 211920Z 20007KT 9999 SCT021 OVC027 07/05 Q1017 NOSIG
EKKA - Karup (dan-Afb), Denmark
Distance from station: PdPdWs 209km
Aktualizacja: 21/10/2019 21:43
Light drizzle, Przeważnie pochmurno
Light drizzle, Przeważnie pochmurno
 Wiatr z PnPnZd
Wiatr: PnPnZd 11 km/h
Temperatura: 9°C
Wind Chill: 7°C
Punkt Rosy: 8°C
Wilgotność: 94%
Ciśnienie: 1019 hPa
Podsumowanie: Light Drizzle
Clouds: Przeważnie pochmurno
Visibility: 3 km
Cloud details: Częściowe zachmurzenie 91 m
Przeważnie pochmurno 457 m
2019/10/21 19:43 EKKA 211943Z AUTO 03006KT 2900 -DZ SCT003/// BKN015/// 09/08 Q1019 TEMPO 2500 -RADZ BR BKN003
 
ENHD - Haugesund/Karmoy, Norway
Distance from station: PnZd 216km
Aktualizacja: 21/10/2019 21:20
Przeważnie pochmurno
Przeważnie pochmurno
 Wiatr z PdZd
Wiatr: PdZd 24 km/h
Temperatura: 10°C
Wind Chill: 7°C
Punkt Rosy: 4°C
Wilgotność: 67%
Ciśnienie: 1017 hPa
Clouds: Przeważnie pochmurno
Visibility: 10 km
Cloud details: Częściowe zachmurzenie 823 m
Przeważnie pochmurno 1097 m
2019/10/21 19:20 ENHD 211920Z 22013KT 9999 SCT027 BKN036 10/04 Q1017
ENRY - Rygge (nor-Afb), Norway
Distance from station: PnWs 216km
Aktualizacja: 21/10/2019 21:20
Pochmurno
Pochmurno
 Wiatr z PdPdWs
Wiatr: PdPdWs 9 km/h
Temperatura: 5°C
Wind Chill: 3°C
Punkt Rosy: 4°C
Wilgotność: 93%
Ciśnienie: 1018 hPa
Clouds: Pochmurno
Visibility: 10 km
Cloud details: Few Clouds 274 m
Pochmurno 488 m
2019/10/21 19:20 ENRY 211920Z AUTO 15005KT 9999NDV FEW009/// OVC016/// 05/04 Q1018
 
ESGP - Goteborg/Save (a, Sweden
Distance from station: Ws 230km
Aktualizacja: 02/01/2017 11:20
NOT Current
Bezchmurnie
Bezchmurnie
 Wiatr z calm
Wiatr: Cisza
Temperatura: -2°C
Punkt Rosy: -4°C
Wilgotność: 86%
Ciśnienie: 1012 hPa
Clouds: Bezchmurnie
Visibility: 10 km
2017/01/02 10:20 ESGP 021020Z AUTO 00000KT 9999 NCD M02/M04 Q1012
EKVJ - Stauning Airport, Denmark
Distance from station: Pd 233km
Aktualizacja: 21/10/2019 15:50
NOT Current
Lekki deszcz, Drizzle, Przeważnie pochmurno
Lekki deszcz, Drizzle, Przeważnie pochmurno
 Wiatr z PnWs
Wiatr: PnWs 4 km/h
Temperatura: 10°C
Punkt Rosy: 10°C
Wilgotność: 100%
Ciśnienie: 1018 hPa
Podsumowanie: Lekki deszcz, Drizzle
Clouds: Przeważnie pochmurno
Visibility: 7 km
Cloud details: Few Clouds 244 m
Częściowe zachmurzenie 1524 m
Przeważnie pochmurno 3048 m
2019/10/21 13:50 EKVJ 211350Z 05002KT 7000 -RADZ FEW008 SCT050 BKN100 10/10 Q1018
 
ENSO - Stord/Soerstokke, Norway
Distance from station: PnZd 246km
Aktualizacja: 21/10/2019 18:50
NOT Current
Przeważnie pochmurno
Przeważnie pochmurno
 Wiatr z PdPdZd
Wiatr: PdPdZd 11 km/h
Temperatura: 8°C
Wind Chill: 6°C
Punkt Rosy: 3°C
Wilgotność: 71%
Ciśnienie: 1018 hPa
Clouds: Przeważnie pochmurno
Visibility: 10 km
Cloud details: Few Clouds 914 m
Przeważnie pochmurno 1219 m
2019/10/21 16:50 ENSO 211650Z 21006KT 9999 FEW030 BKN040 08/03 Q1018
EKAH - Tirstrup (civ/Mi, Denmark
Distance from station: PdWs 252km
Aktualizacja: 21/10/2019 21:20
Drizzle, Mist, Pochmurno
Drizzle, Mist, Pochmurno
 Wiatr z Pn
Wiatr: Pn 6 km/h
Temperatura: 10°C
Punkt Rosy: 10°C
Wilgotność: 100%
Ciśnienie: 1019 hPa
Podsumowanie: Drizzle, Mist
Clouds: Pochmurno
Visibility: 2 km
Cloud details: Pochmurno 61 m
2019/10/21 19:20 EKAH 211920Z AUTO 36003KT 2400NDV DZ BR OVC002/// 10/10 Q1019
 
ESGT - Trollhattan (pvt, Sweden
Distance from station: Ws 255km
Aktualizacja: 21/10/2019 21:20
Pochmurno
Pochmurno
 Wiatr z Zd
Wiatr: Zd 7 km/h
Temperatura: 6°C
Wind Chill: 4°C
Punkt Rosy: 5°C
Wilgotność: 93%
Ciśnienie: 1018 hPa
Clouds: Pochmurno
Visibility: 10 km
Cloud details: Pochmurno 274 m
2019/10/21 19:20 ESGT 211920Z AUTO 27004KT 230V310 9999 OVC009/// 06/05 Q1018
ESGG - Goteborg/Landvet, Sweden
Distance from station: Ws 257km
Aktualizacja: 21/10/2019 21:20
Mist, Pochmurno
Mist, Pochmurno
 Wiatr z ZdPnZd
Wiatr: ZdPnZd 7 km/h
Temperatura: 7°C
Wind Chill: 6°C
Punkt Rosy: 6°C
Wilgotność: 93%
Ciśnienie: 1018 hPa
Podsumowanie: Mist
Clouds: Pochmurno
Visibility: 3 km
Cloud details: Przeważnie pochmurno 30 m
Pochmurno 1798 m
2019/10/21 19:20 ESGG 211920Z 29004KT 2900 BR BKN001 OVC059 07/06 Q1018
 
EKBI - Billund Airport, Denmark
Distance from station: PdPdWs 269km
Aktualizacja: 21/10/2019 21:20
Pochmurno
Pochmurno
 Wiatr z PnWs
Wiatr: PnWs 7 km/h
Temperatura: 10°C
Wind Chill: 9°C
Punkt Rosy: 9°C
Wilgotność: 94%
Ciśnienie: 1018 hPa
Clouds: Pochmurno
Visibility: 10 km
Cloud details: Przeważnie pochmurno 152 m
Pochmurno 579 m
2019/10/21 19:20 EKBI 211920Z AUTO 05004KT 9999 BKN005/// OVC019/// 10/09 Q1018
EKHN - Horns Rev B Heli, Denmark
Distance from station: Pd 274km
Aktualizacja: 09/08/2016 14:20
NOT Current
Few Clouds
Few Clouds
 Wiatr z ZdPnZd
Wiatr: ZdPnZd 50 km/h, Poryw: 72 km/h
Temperatura: 14°C
Punkt Rosy: 10°C
Wilgotność: 77%
Ciśnienie: 1018 hPa
Clouds: Few Clouds
Visibility: 10 km
Cloud details: Few Clouds 1158 m
Few Clouds 2438 m
2016/08/09 12:20 EKHN 091220Z AUTO 29027G39KT 270V340 9999NDV FEW038/// FEW080/// 14/10 Q1018
 
ESIB - Satenas (swe-Afb, Sweden
Distance from station: Ws 277km
Aktualizacja: 21/10/2019 21:20
Pochmurno
Pochmurno
 Wiatr z Zd
Wiatr: Zd 11 km/h
Temperatura: 7°C
Wind Chill: 5°C
Punkt Rosy: 7°C
Wilgotność: 100%
Ciśnienie: 1018 hPa
Clouds: Pochmurno
Visibility: 10 km
Cloud details: Przeważnie pochmurno 274 m
Pochmurno 335 m
2019/10/21 19:20 ESIB 211920Z AUTO 28006KT 9999 BKN009/// OVC011/// 07/07 Q1018
EKHR - Horns Rev B Heli, Denmark
Distance from station: Pd 282km
Aktualizacja: 04/10/2016 06:20
NOT Current
Bezchmurnie
Bezchmurnie
 Wiatr z Ws
Wiatr: Ws 4 km/h
Temperatura: 11°C
Punkt Rosy: -49°C
Wilgotność: 0%
Ciśnienie: 1038 hPa
Clouds: Bezchmurnie
Visibility: 10 km
2016/10/04 04:20 EKHR 040420Z AUTO 08002KT 9999NDV NCD 11/M49 Q1038